General Aviation Weather

Text Reports

Enter one or more of the following location identifiers separated by a space:

Zip Code, Four-Character ICAO or Three-Character IATA airport codes.

METAR - Aviation Routine Weather Report
KARG - Walnut Ridge, Arkansas
Updated at 9:55 AM GMT on September 02, 2014 (4:55 AM CDT):
METAR KARG 020955Z AUTO 19009KT 10SM SCT120 24/13 A2995 RMK AO1
TAF - Terminal Area Forecast
KARG - Walnut Ridge, Arkansas
Updated at 9:55 AM GMT on September 02, 2014 (4:55 AM CDT):
No TAF is currently available for this location.
Decoded:
No decoded TAF is available.
PIREP - Pilot Weather Report
KARG - Walnut Ridge, Arkansas
Updated at 9:55 AM GMT on September 02, 2014 (4:55 AM CDT):
No PIREP is currently available for this location.
AIRMET - Airmens Meteorological Information
KARG - Walnut Ridge, Arkansas
Updated at 9:55 AM GMT on September 02, 2014 (4:55 AM CDT):
No AIRMET is currently available for this location.
SIGMET - Significant Meteorological Information
KARG - Walnut Ridge, Arkansas
Updated at 9:55 AM GMT on September 02, 2014 (4:55 AM CDT):
No SIGMET is currently available for this location.
NOTAM - Notice to Airmen
KARG - Walnut Ridge, Arkansas
Updated at 9:55 AM GMT on September 02, 2014 (4:55 AM CDT):
No NOTAM is currently available for this location.
Forecast Area
KARG - Walnut Ridge, Arkansas
Updated at 9:55 AM GMT on September 02, 2014 (4:55 AM CDT):
No NOTAM is currently available for this location.
Aviation Weather Maps